Tanja Jacob — A8YR7 — position and weather

sailwx.info

Track history (hours):
 
Tides and Currents Weather Stations Pressure Air Temp Water Temp Dewpoint Dewpoint Depression Visibility Wind Speed Wind Dir Waves Ship Positions

Tanja Jacob

Last reported at 2015-Apr-26 12:29 UTC. Time now 2015-Apr-28 00:37 UTC.
Position N 24°14' W 080°32'.

Length 227 m; draft 12.5 m.

Type: Ship. MMSI: 636092217.

Date/timePositionNaut miles runAvg speedWind from/ knotsBaromVisibWave heightAir tempDewpointWater temp
2015-Apr-26 12:29N 24°14' W 080°32'1410.6
2015-Apr-26 11:12N 24°21' W 080°19'710.8
2015-Apr-26 10:31N 24°26' W 080°13'1111.0
2015-Apr-26 09:32N 24°32' W 080°03'1111.5
2015-Apr-26 08:33N 24°38' W 079°52'1412.5
2015-Apr-26 07:26N 24°46' W 079°40'1512.5
2015-Apr-26 06:15N 25°01' W 079°37'4211.4
2015-Apr-26 02:33N 25°43' W 079°36'1110.7
2015-Apr-26 01:33N 25°53' W 079°35'1110.8
2015-Apr-26 00:33N 26°04' W 079°33'1110.7
2015-Apr-25 23:33N 26°13' W 079°27'3912.2
2015-Apr-25 20:24N 26°17' W 078°44'  
Track history (hours):
 
Tides and Currents Weather Stations Pressure Air Temp Water Temp Dewpoint Dewpoint Depression Visibility Wind Speed Wind Dir Waves Ship Positions

Tanja Jacob

Last reported at 2015-Apr-26 12:29 UTC. Time now 2015-Apr-28 00:37 UTC.
Position N 24°14' W 080°32'.

Length 227 m; draft 12.5 m.

Type: Ship. MMSI: 636092217.

Date/timePositionNaut miles runAvg speedWind from/ knotsBaromVisibWave heightAir tempDewpointWater temp
2015-Apr-26 12:29N 24°14' W 080°32'1410.6
2015-Apr-26 11:12N 24°21' W 080°19'710.8
2015-Apr-26 10:31N 24°26' W 080°13'1111.0
2015-Apr-26 09:32N 24°32' W 080°03'1111.5
2015-Apr-26 08:33N 24°38' W 079°52'1412.5
2015-Apr-26 07:26N 24°46' W 079°40'1512.5
2015-Apr-26 06:15N 25°01' W 079°37'4211.4
2015-Apr-26 02:33N 25°43' W 079°36'1110.7
2015-Apr-26 01:33N 25°53' W 079°35'1110.8
2015-Apr-26 00:33N 26°04' W 079°33'1110.7
2015-Apr-25 23:33N 26°13' W 079°27'3912.2
2015-Apr-25 20:24N 26°17' W 078°44'  

Dump ship's entire track history